createdAt,value
2022-09-24T00:05:22.712Z,30.10
2022-09-24T00:27:06.531Z,22.00
2022-09-24T00:48:53.056Z,20.30
2022-09-24T01:10:50.439Z,22.80
2022-09-24T01:32:38.986Z,24.40
2022-09-24T01:54:27.314Z,22.00
2022-09-24T02:16:15.594Z,25.60
2022-09-24T02:38:01.658Z,22.90
2022-09-24T02:59:47.181Z,26.00
2022-09-24T03:21:30.295Z,22.10
2022-09-24T03:43:13.347Z,23.20
2022-09-24T04:04:56.391Z,23.50
2022-09-24T04:26:39.436Z,23.40
2022-09-24T04:48:23.580Z,20.60
2022-09-24T05:10:08.790Z,21.20
2022-09-24T05:31:52.084Z,18.80
2022-09-24T05:53:35.292Z,18.80
2022-09-24T06:15:18.757Z,16.50
2022-09-24T06:37:01.779Z,19.30
2022-09-24T06:58:44.851Z,18.70
2022-09-24T07:20:28.320Z,15.00
2022-09-24T07:42:11.353Z,11.50
2022-09-24T08:03:54.822Z,14.20
2022-09-24T08:25:37.980Z,10.30
2022-09-24T08:47:33.307Z,10.50
2022-09-24T09:09:19.960Z,9.30
2022-09-24T09:31:13.539Z,13.60
2022-09-24T09:52:57.044Z,8.20
2022-09-24T10:14:40.290Z,9.40
2022-09-24T10:36:26.457Z,9.10
2022-09-24T10:58:26.071Z,8.50
2022-09-24T11:20:35.573Z,8.10
2022-09-24T11:42:24.880Z,10.90
2022-09-24T12:04:16.047Z,8.60
2022-09-24T12:26:03.458Z,8.20
2022-09-24T12:47:51.086Z,11.30
2022-09-24T13:09:37.588Z,7.80
2022-09-24T13:31:30.981Z,8.10
2022-09-24T13:53:20.775Z,7.60
2022-09-24T14:15:14.126Z,8.60
2022-09-24T14:37:06.018Z,7.00
2022-09-24T14:58:49.066Z,10.30
2022-09-24T15:20:32.110Z,5.70
2022-09-24T15:42:16.277Z,7.50
2022-09-24T16:03:59.521Z,7.20
2022-09-24T16:25:53.084Z,8.10
2022-09-24T16:47:36.342Z,7.70
2022-09-24T17:09:37.980Z,10.90
2022-09-24T17:31:22.822Z,14.80
2022-09-24T17:53:06.041Z,15.30
2022-09-24T18:36:32.668Z,22.00
2022-09-24T18:58:15.906Z,23.30
2022-09-24T19:19:59.128Z,26.70
2022-09-24T19:41:42.933Z,26.60
2022-09-24T20:25:11.032Z,29.70
2022-09-24T20:46:54.050Z,34.70
2022-09-24T21:08:39.081Z,32.60
2022-09-24T21:30:22.231Z,33.90
2022-09-24T21:52:06.386Z,35.30
2022-09-24T22:13:49.374Z,37.30
2022-09-24T22:35:49.705Z,31.40
2022-09-24T22:57:34.623Z,38.80
2022-09-24T23:19:19.380Z,30.90
2022-09-24T23:41:03.008Z,28.40
